Time;durP1;ratioP1;P1;durP2;ratioP2;P2;SDS_P1;SDS_P2;PMS_P1;PMS_P2;Temp;Humidity;BMP_temperature;BMP_pressure;BME280_temperature;BME280_humidity;BME280_pressure;Samples;Min_cycle;Max_cycle;Signal;HPM_P1;HPM_P2
2021/10/07 04:17:21;;;;;;;0.28;0.28;;;;;;;9.94;97.67;99616.00;5099572;23;20047;-69
2021/10/07 04:19:47;;;;;;;0.30;0.30;;;;;;;9.97;97.22;99621.19;4973081;28;20085;-68
2021/10/07 04:22:12;;;;;;;0.38;0.38;;;;;;;10.02;98.51;99624.63;4972931;28;20027;-70
2021/10/07 04:24:37;;;;;;;0.30;0.30;;;;;;;9.98;97.22;99628.09;4973005;28;20361;-71
2021/10/07 04:27:03;;;;;;;0.30;0.30;;;;;;;9.98;97.52;99622.91;4972329;28;20503;-69
2021/10/07 04:29:28;;;;;;;0.30;0.30;;;;;;;9.98;97.44;99630.66;4967250;28;20499;-69
2021/10/07 04:31:54;;;;;;;0.30;0.30;;;;;;;10.03;97.45;99634.13;4964099;28;20059;-71
2021/10/07 04:34:20;;;;;;;0.20;0.20;;;;;;;9.99;98.27;99640.16;4959469;28;20118;-71
2021/10/07 04:36:45;;;;;;;0.40;0.40;;;;;;;9.86;98.58;99637.59;4962003;28;20552;-71
2021/10/07 04:39:11;;;;;;;0.30;0.30;;;;;;;9.87;98.84;99637.59;4967504;28;20106;-71
2021/10/07 04:41:36;;;;;;;0.40;0.40;;;;;;;9.87;99.03;99641.91;4963763;28;20031;-70
2021/10/07 04:44:01;;;;;;;0.30;0.30;;;;;;;9.79;98.88;99647.09;4965412;28;20073;-71
2021/10/07 04:46:27;;;;;;;0.30;0.30;;;;;;;9.73;99.33;99649.69;4966609;28;20119;-71
2021/10/07 04:48:54;;;;;;;0.40;0.40;;;;;;;9.70;99.44;99653.13;4963491;28;20520;-72
2021/10/07 04:51:19;;;;;;;0.30;0.30;;;;;;;9.71;98.94;99661.75;4962278;28;20023;-70
2021/10/07 04:53:44;;;;;;;0.55;0.55;;;;;;;9.70;99.63;99655.72;4967846;28;20020;-71
2021/10/07 04:56:10;;;;;;;0.40;0.40;;;;;;;9.72;100.00;99660.91;4959290;28;20723;-70
2021/10/07 04:58:35;;;;;;;0.30;0.30;;;;;;;9.76;100.00;99662.59;4966098;28;20027;-70
2021/10/07 05:01:01;;;;;;;0.40;0.40;;;;;;;9.75;100.00;99660.91;4962651;28;20365;-68
2021/10/07 05:03:26;;;;;;;0.28;0.28;;;;;;;9.78;100.00;99660.91;4964206;28;20023;-68
2021/10/07 05:05:51;;;;;;;0.40;0.40;;;;;;;10.12;100.00;99655.69;4958711;28;20031;-68
2021/10/07 05:08:17;;;;;;;0.55;0.55;;;;;;;9.93;100.00;99666.06;4968132;28;20050;-68
2021/10/07 05:10:44;;;;;;;0.70;0.70;;;;;;;9.91;100.00;99672.97;4967478;28;20018;-68
2021/10/07 05:13:09;;;;;;;0.50;0.50;;;;;;;9.78;100.00;99666.06;4961697;28;20030;-68
2021/10/07 05:15:35;;;;;;;0.40;0.40;;;;;;;9.83;100.00;99671.25;4962527;28;20027;-68
2021/10/07 05:18:00;;;;;;;0.50;0.35;;;;;;;9.74;100.00;99669.53;4968829;28;20532;-68
2021/10/07 05:20:25;;;;;;;0.20;0.20;;;;;;;9.64;100.00;99676.44;4968106;28;20054;-68
2021/10/07 05:22:51;;;;;;;0.70;0.70;;;;;;;9.64;100.00;99678.16;4963113;28;20405;-67
2021/10/07 05:25:16;;;;;;;0.85;0.85;;;;;;;9.64;100.00;99689.38;4967016;28;20022;-67
2021/10/07 05:27:41;;;;;;;1.15;1.05;;;;;;;9.61;100.00;99685.91;4969736;28;20034;-67
2021/10/07 05:30:08;;;;;;;0.50;0.50;;;;;;;9.59;100.00;99683.31;4962423;28;20026;-66
2021/10/07 05:32:34;;;;;;;0.30;0.30;;;;;;;9.66;100.00;99687.63;4959531;28;20019;-67
2021/10/07 05:35:00;;;;;;;0.50;0.50;;;;;;;9.66;100.00;99691.94;4966277;28;20029;-67
2021/10/07 05:37:27;;;;;;;1.60;1.45;;;;;;;9.70;100.00;99694.53;4960303;28;20090;-66
2021/10/07 05:39:52;;;;;;;0.70;0.70;;;;;;;9.73;100.00;99691.09;4965494;28;20035;-69
2021/10/07 05:42:18;;;;;;;0.75;0.75;;;;;;;9.78;100.00;99691.97;4962874;28;20377;-68
2021/10/07 05:44:43;;;;;;;0.82;0.82;;;;;;;9.90;100.00;99694.53;4964537;28;20081;-68
2021/10/07 05:47:08;;;;;;;0.70;0.70;;;;;;;9.87;100.00;99702.31;4962324;28;20039;-69
2021/10/07 05:49:34;;;;;;;0.40;0.40;;;;;;;9.84;99.94;99712.66;4964928;28;20468;-70
2021/10/07 05:51:59;;;;;;;0.32;0.32;;;;;;;9.87;99.51;99701.44;4959988;28;20468;-69
2021/10/07 05:54:25;;;;;;;0.45;0.45;;;;;;;9.91;99.57;99698.88;4969295;28;20106;-69
2021/10/07 05:56:50;;;;;;;0.32;0.32;;;;;;;9.97;100.00;99698.84;4965855;28;20023;-69
2021/10/07 05:59:15;;;;;;;0.68;0.68;;;;;;;9.95;100.00;99697.97;4964640;28;20031;-70
2021/10/07 06:01:41;;;;;;;0.40;0.40;;;;;;;9.96;99.80;99707.50;4958802;28;20059;-69
2021/10/07 06:04:06;;;;;;;0.30;0.30;;;;;;;9.98;100.00;99710.06;4969515;28;20428;-70
2021/10/07 06:06:32;;;;;;;0.70;0.70;;;;;;;10.03;99.58;99709.19;4967028;28;20042;-70
2021/10/07 06:08:57;;;;;;;0.30;0.30;;;;;;;10.14;99.96;99708.31;4963723;28;20016;-70
2021/10/07 06:11:23;;;;;;;0.47;0.47;;;;;;;10.19;99.86;99714.34;4964740;28;20436;-69
2021/10/07 06:13:48;;;;;;;0.70;0.70;;;;;;;10.36;100.00;99712.63;4961431;28;20426;-70
2021/10/07 06:16:13;;;;;;;0.77;0.77;;;;;;;10.41;100.00;99712.63;4961984;28;20054;-70
2021/10/07 06:18:39;;;;;;;0.75;0.75;;;;;;;10.36;99.60;99717.81;4956543;28;20078;-69
2021/10/07 06:21:04;;;;;;;0.32;0.32;;;;;;;10.44;98.95;99716.09;4967360;28;20030;-70
2021/10/07 06:23:30;;;;;;;0.75;0.75;;;;;;;10.40;98.56;99718.69;4967647;28;20024;-70
2021/10/07 06:25:55;;;;;;;0.68;0.68;;;;;;;10.29;98.05;99722.13;4970024;28;20019;-70
2021/10/07 06:28:21;;;;;;;0.50;0.50;;;;;;;10.51;98.31;99722.97;4963502;28;20102;-70
2021/10/07 06:30:47;;;;;;;0.40;0.40;;;;;;;10.64;97.22;99722.94;4967373;28;20023;-69
2021/10/07 06:33:12;;;;;;;0.80;0.55;;;;;;;10.41;96.97;99723.84;4961906;28;20464;-69
2021/10/07 06:35:38;;;;;;;0.40;0.40;;;;;;;10.50;97.50;99726.44;4964137;28;20122;-69
2021/10/07 06:38:04;;;;;;;0.80;0.80;;;;;;;10.57;97.46;99726.41;4962443;28;20022;-69
2021/10/07 06:40:29;;;;;;;0.50;0.50;;;;;;;10.53;97.50;99726.41;4964658;28;20583;-70
2021/10/07 06:42:54;;;;;;;0.50;0.50;;;;;;;10.48;96.38;99733.31;4960489;28;20025;-69
2021/10/07 06:45:20;;;;;;;0.50;0.50;;;;;;;10.44;96.18;99726.44;4960193;28;20019;-69
2021/10/07 06:47:45;;;;;;;0.90;0.90;;;;;;;10.49;96.96;99734.19;4968155;28;20019;-69
2021/10/07 06:50:12;;;;;;;0.90;0.90;;;;;;;10.46;96.99;99737.66;4961375;28;20038;-69
2021/10/07 06:52:39;;;;;;;0.43;0.43;;;;;;;10.49;97.01;99737.66;4966320;28;20074;-69
2021/10/07 06:55:05;;;;;;;2.53;0.40;;;;;;;10.52;96.27;99735.06;4963353;28;20053;-69
2021/10/07 06:57:31;;;;;;;0.40;0.40;;;;;;;10.43;97.48;99737.66;4959182;28;20042;-69
2021/10/07 06:59:56;;;;;;;0.43;0.43;;;;;;;10.49;97.80;99740.25;4961807;28;20027;-69
2021/10/07 07:02:23;;;;;;;0.75;0.75;;;;;;;10.67;97.39;99735.88;4965115;28;20025;-69
2021/10/07 07:04:48;;;;;;;0.70;0.70;;;;;;;10.60;95.42;99734.19;4958982;28;20027;-69
2021/10/07 07:07:13;;;;;;;0.40;0.40;;;;;;;10.68;95.42;99742.78;4968393;28;20033;-69
2021/10/07 07:09:39;;;;;;;0.60;0.60;;;;;;;10.70;94.71;99743.66;4965713;28;20027;-70
2021/10/07 07:12:04;;;;;;;0.40;0.40;;;;;;;10.88;93.50;99753.97;4964647;28;20057;-70
2021/10/07 07:14:32;;;;;;;0.30;0.30;;;;;;;11.03;93.11;99748.72;4963410;28;20034;-70
2021/10/07 07:16:57;;;;;;;0.70;0.70;;;;;;;11.22;92.03;99759.03;4961676;28;20131;-70
2021/10/07 07:19:22;;;;;;;0.28;0.28;;;;;;;11.20;89.57;99755.56;4961341;28;20031;-70
2021/10/07 07:21:48;;;;;;;0.30;0.30;;;;;;;11.44;88.85;99752.81;4967632;28;20031;-70
2021/10/07 07:24:13;;;;;;;0.50;0.50;;;;;;;11.63;87.42;99755.31;4966702;28;20034;-70
2021/10/07 07:26:38;;;;;;;0.30;0.30;;;;;;;11.71;87.23;99753.53;4959276;28;20116;-70
2021/10/07 07:29:04;;;;;;;0.40;0.40;;;;;;;11.67;87.83;99757.03;4964152;28;20038;-70
2021/10/07 07:31:29;;;;;;;0.40;0.40;;;;;;;12.11;86.21;99758.47;4956166;28;20046;-70
2021/10/07 07:33:55;;;;;;;0.68;0.68;;;;;;;12.16;85.85;99762.72;4965155;28;20031;-69
2021/10/07 07:36:24;;;;;;;3.22;0.50;;;;;;;12.41;82.45;99752.97;4960950;28;20034;-68
2021/10/07 07:38:50;;;;;;;0.30;0.30;;;;;;;12.34;83.99;99752.19;4966497;28;20373;-68
2021/10/07 07:41:16;;;;;;;0.40;0.40;;;;;;;12.36;84.55;99759.94;4957022;28;20130;-68
2021/10/07 07:43:42;;;;;;;0.28;0.28;;;;;;;12.44;83.03;99757.28;4963730;28;20104;-68
2021/10/07 07:46:08;;;;;;;0.73;0.73;;;;;;;12.46;83.68;99761.59;4972313;28;20026;-68
2021/10/07 07:48:34;;;;;;;0.40;0.40;;;;;;;12.56;82.88;99763.22;4966421;28;20027;-68
2021/10/07 07:51:01;;;;;;;0.90;0.90;;;;;;;12.58;85.50;99766.69;4962110;28;20019;-68
2021/10/07 07:53:26;;;;;;;0.70;0.70;;;;;;;12.87;83.36;99770.69;4960200;28;20027;-68
2021/10/07 07:55:53;;;;;;;0.22;0.22;;;;;;;12.84;79.19;99768.13;4961862;28;20041;-68
2021/10/07 07:58:19;;;;;;;0.30;0.30;;;;;;;12.77;78.70;99771.69;4962953;28;20073;-67
2021/10/07 08:00:45;;;;;;;2.15;0.57;;;;;;;12.59;81.17;99778.78;4961586;28;20046;-68
2021/10/07 08:03:11;;;;;;;0.32;0.32;;;;;;;12.43;80.82;99777.22;4957343;28;20030;-68
2021/10/07 08:05:36;;;;;;;0.57;0.57;;;;;;;12.53;81.48;99781.47;4955587;28;20023;-67
2021/10/07 08:08:01;;;;;;;0.40;0.40;;;;;;;12.68;81.74;99776.97;4960811;28;20364;-68
2021/10/07 08:10:27;;;;;;;0.40;0.40;;;;;;;13.02;81.70;99775.72;4964851;28;20027;-68
2021/10/07 08:12:52;;;;;;;1.15;1.05;;;;;;;13.49;79.44;99784.72;4962254;28;20102;-68
2021/10/07 08:15:19;;;;;;;0.52;0.52;;;;;;;13.52;77.30;99779.44;4964424;28;20117;-67
2021/10/07 08:17:44;;;;;;;0.80;0.80;;;;;;;13.38;78.42;99776.16;4959562;28;20031;-67
2021/10/07 08:20:13;;;;;;;2.35;0.82;;;;;;;13.46;76.14;99774.31;4963128;28;20123;-68
2021/10/07 08:22:40;;;;;;;0.40;0.40;;;;;;;13.40;77.42;99774.41;4965985;28;20476;-68
2021/10/07 08:25:06;;;;;;;0.30;0.30;;;;;;;13.60;77.36;99782.81;4963658;28;20023;-67
2021/10/07 08:27:32;;;;;;;0.85;0.85;;;;;;;13.71;77.30;99779.19;4963209;28;20027;-67
2021/10/07 08:29:58;;;;;;;0.20;0.20;;;;;;;13.94;74.32;99782.31;4965903;28;20023;-67
2021/10/07 08:32:24;;;;;;;0.60;0.60;;;;;;;13.57;74.47;99788.03;4960271;28;20106;-67
2021/10/07 08:34:49;;;;;;;0.35;0.35;;;;;;;13.09;76.54;99794.72;4964885;28;20117;-67
2021/10/07 08:37:15;;;;;;;0.40;0.40;;;;;;;13.00;78.18;99798.28;4958593;28;20026;-67
2021/10/07 08:39:40;;;;;;;0.50;0.50;;;;;;;13.04;79.59;99802.56;4956372;28;20023;-68
2021/10/07 08:42:05;;;;;;;0.30;0.30;;;;;;;13.07;78.53;99802.56;4968208;28;20126;-68
2021/10/07 08:44:31;;;;;;;0.50;0.50;;;;;;;12.99;79.49;99799.16;4967667;28;20031;-68
2021/10/07 08:46:57;;;;;;;0.25;0.25;;;;;;;12.64;79.08;99801.28;4962930;28;20050;-68
2021/10/07 08:49:25;;;;;;;0.45;0.45;;;;;;;12.70;78.80;99806.41;4964298;28;20570;-68
2021/10/07 08:51:51;;;;;;;0.75;0.75;;;;;;;12.52;78.37;99813.53;4958269;28;20066;-68
2021/10/07 08:54:18;;;;;;;1.05;0.60;;;;;;;12.45;79.47;99817.06;4963959;28;20031;-68
2021/10/07 08:56:44;;;;;;;1.73;1.50;;;;;;;12.40;80.41;99813.63;4974642;28;20086;-67
2021/10/07 08:59:09;;;;;;;0.77;0.50;;;;;;;12.21;80.98;99819.84;4960943;28;20023;-67
2021/10/07 09:01:38;;;;;;;0.45;0.45;;;;;;;12.25;81.63;99824.16;4963634;28;20380;-67
2021/10/07 09:04:28;;;;;;;0.52;0.52;;;;;;;12.47;80.33;99814.44;4961088;28;20023;-67
2021/10/07 09:07:02;;;;;;;0.30;0.30;;;;;;;12.91;78.60;99811.41;4968038;28;20384;-67
2021/10/07 09:09:29;;;;;;;0.43;0.43;;;;;;;13.49;75.61;99809.84;4963929;28;20026;-67
2021/10/07 09:12:09;;;;;;;0.57;0.57;;;;;;;13.70;74.15;99803.53;4959157;28;20035;-68
2021/10/07 09:14:43;;;;;;;0.70;0.70;;;;;;;14.11;71.62;99801.13;4960789;28;20511;-69
2021/10/07 09:17:11;;;;;;;0.98;0.98;;;;;;;14.15;72.19;99805.41;4966559;28;20385;-68
2021/10/07 09:19:40;;;;;;;2.10;0.63;;;;;;;14.15;71.18;99808.03;4971187;28;20121;-68
2021/10/07 09:22:22;;;;;;;0.70;0.70;;;;;;;14.71;69.30;99796.69;4959404;28;20030;-67
2021/10/07 09:24:58;;;;;;;0.50;0.50;;;;;;;14.15;70.69;99808.03;4971934;28;20050;-67
2021/10/07 09:27:27;;;;;;;1.25;0.93;;;;;;;13.93;71.12;99806.66;4958644;28;20106;-67
2021/10/07 09:30:04;;;;;;;0.25;0.25;;;;;;;13.68;72.85;99810.47;4961909;28;20031;-67
2021/10/07 09:32:34;;;;;;;0.77;0.77;;;;;;;13.53;73.49;99812.41;4963270;28;20165;-67
2021/10/07 09:35:01;;;;;;;0.30;0.30;;;;;;;12.89;76.88;99823.56;4966404;28;20468;-68
2021/10/07 09:37:40;;;;;;;0.30;0.30;;;;;;;12.55;78.57;99817.81;4969119;28;20061;-67
2021/10/07 09:40:17;;;;;;;2.65;0.73;;;;;;;12.33;79.30;99817.19;4963483;28;20019;-67
2021/10/07 09:42:57;;;;;;;1.35;1.20;;;;;;;12.63;77.57;99815.16;4963587;28;20019;-67
2021/10/07 09:45:24;;;;;;;0.45;0.45;;;;;;;12.99;77.60;99817.38;4964763;28;20027;-67
2021/10/07 09:47:55;;;;;;;0.40;0.40;;;;;;;13.48;76.35;99813.34;4963712;28;20015;-67
2021/10/07 09:50:23;;;;;;;0.80;0.80;;;;;;;13.54;75.35;99814.16;4963138;28;20029;-67
2021/10/07 09:53:01;;;;;;;0.95;0.95;;;;;;;14.05;73.44;99801.25;4966669;28;20011;-66
2021/10/07 09:55:32;;;;;;;0.52;0.52;;;;;;;14.69;70.44;99793.25;4962742;28;20092;-66
2021/10/07 09:58:05;;;;;;;1.08;0.40;;;;;;;15.38;68.32;99795.38;4968107;28;20019;-67
2021/10/07 10:00:36;;;;;;;0.30;0.30;;;;;;;15.83;67.02;99795.28;4961567;28;20126;-67
2021/10/07 10:03:04;;;;;;;0.82;0.82;;;;;;;16.99;62.42;99794.97;4966027;28;20015;-67
2021/10/07 10:05:31;;;;;;;0.30;0.30;;;;;;;17.14;60.85;99797.16;4967679;28;20027;-67
2021/10/07 10:07:57;;;;;;;0.73;0.70;;;;;;;17.04;61.41;99793.06;4961692;28;20082;-67
2021/10/07 10:10:22;;;;;;;0.65;0.65;;;;;;;16.88;60.74;99794.41;4966186;28;20031;-67
2021/10/07 10:12:49;;;;;;;0.50;0.50;;;;;;;16.75;57.94;99795.63;4962241;28;20059;-67
2021/10/07 10:15:16;;;;;;;0.40;0.40;;;;;;;16.30;59.93;99798.50;4963752;28;20138;-67
2021/10/07 10:17:41;;;;;;;0.20;0.20;;;;;;;16.01;61.30;99800.06;4959258;28;20034;-67
2021/10/07 10:20:13;;;;;;;0.40;0.40;;;;;;;16.22;61.70;99795.22;4969017;28;20019;-67
2021/10/07 10:22:42;;;;;;;0.35;0.35;;;;;;;16.58;60.35;99794.28;4967187;28;20026;-69
2021/10/07 10:25:07;;;;;;;0.20;0.20;;;;;;;16.34;59.40;99800.13;4968673;28;20149;-67
2021/10/07 10:27:51;;;;;;;1.33;1.05;;;;;;;15.89;61.07;99800.34;4966519;28;20106;-69
2021/10/07 10:30:19;;;;;;;0.63;0.55;;;;;;;15.46;63.97;99811.72;5022586;23;20043;-71
2021/10/07 10:32:44;;;;;;;0.40;0.40;;;;;;;15.17;65.16;99802.72;5001924;28;20026;-71
2021/10/07 10:35:32;;;;;;;0.50;0.50;;;;;;;15.13;66.09;99806.31;4995014;28;20026;-71
2021/10/07 10:37:59;;;;;;;0.60;0.60;;;;;;;14.75;66.14;99799.22;4992967;28;20054;-71
2021/10/07 10:40:25;;;;;;;0.38;0.28;;;;;;;14.31;66.94;99807.75;4991874;28;20031;-71
2021/10/07 10:43:18;;;;;;;0.28;0.28;;;;;;;14.11;67.60;99816.78;4968137;28;20015;-71
2021/10/07 10:46:08;;;;;;;0.30;0.30;;;;;;;13.89;67.43;99811.03;4970114;28;20038;-71
2021/10/07 10:48:46;;;;;;;0.40;0.40;;;;;;;13.76;68.88;99824.25;4973154;28;20034;-71
2021/10/07 10:51:12;;;;;;;0.50;0.50;;;;;;;13.59;71.17;99825.38;4972842;28;20033;-71
2021/10/07 10:54:11;;;;;;;0.40;0.40;;;;;;;13.86;69.88;99813.69;4971663;28;20141;-72
2021/10/07 10:56:57;;;;;;;0.30;0.30;;;;;;;14.22;68.92;99807.94;4971662;28;20018;-71
2021/10/07 10:59:25;;;;;;;0.20;0.20;;;;;;;14.53;66.73;99809.16;4978411;28;20104;-71
2021/10/07 11:02:29;;;;;;;0.73;0.73;;;;;;;14.72;66.33;99808.84;4976515;28;20440;-71
2021/10/07 11:04:56;;;;;;;2.47;1.30;;;;;;;14.54;67.00;99816.09;4972424;28;20039;-71
2021/10/07 11:07:36;;;;;;;1.00;0.50;;;;;;;14.32;68.89;99814.72;4980920;28;20026;-71
2021/10/07 11:10:05;;;;;;;0.30;0.30;;;;;;;14.77;67.09;99812.22;4974738;28;20024;-71
2021/10/07 11:12:55;;;;;;;;;;;;;;;14.91;65.09;99810.22;4978226;28;20037;-71
2021/10/07 11:15:22;;;;;;;0.30;0.30;;;;;;;14.99;65.93;99813.56;4966487;28;19913;-71
2021/10/07 11:17:49;;;;;;;0.60;0.60;;;;;;;14.56;67.70;99814.34;4978939;28;20035;-71
2021/10/07 11:20:33;;;;;;;0.20;0.20;;;;;;;14.83;67.51;99807.75;4972624;28;20031;-71
2021/10/07 11:23:10;;;;;;;0.55;0.55;;;;;;;15.54;65.70;99804.59;4979493;28;20023;-71
2021/10/07 11:25:39;;;;;;;1.00;0.95;;;;;;;15.55;66.13;99813.28;4977596;28;20697;-71
2021/10/07 11:28:04;;;;;;;1.00;0.93;;;;;;;14.90;66.98;99808.50;4972927;28;20387;-71
2021/10/07 11:30:34;;;;;;;0.43;0.43;;;;;;;15.65;64.49;99800.00;4980345;28;20113;-71
2021/10/07 11:33:02;;;;;;;0.55;0.30;;;;;;;15.94;62.90;99801.09;4980315;28;20046;-71
2021/10/07 11:35:30;;;;;;;0.30;0.30;;;;;;;16.51;62.00;99795.34;4976314;28;20381;-71
2021/10/07 11:38:00;;;;;;;0.20;0.20;;;;;;;17.01;58.81;99792.28;4961392;28;20074;-71
2021/10/07 11:40:30;;;;;;;0.57;0.57;;;;;;;17.82;56.50;99788.16;4982748;28;20026;-71
2021/10/07 11:42:59;;;;;;;0.30;0.30;;;;;;;17.25;57.66;99790.75;4966906;28;20019;-71
2021/10/07 11:45:30;;;;;;;0.57;0.57;;;;;;;17.14;58.39;99786.66;4976353;28;20035;-71
2021/10/07 11:47:56;;;;;;;0.22;0.22;;;;;;;17.32;57.20;99781.81;4972927;28;20022;-71
2021/10/07 11:50:24;;;;;;;0.10;0.10;;;;;;;16.76;58.10;99786.88;4964049;28;20549;-71
2021/10/07 11:52:53;;;;;;;0.20;0.20;;;;;;;17.14;55.94;99781.44;4969678;28;20070;-71
2021/10/07 11:55:20;;;;;;;0.40;0.40;;;;;;;18.23;54.90;99773.72;4970710;28;20483;-71
2021/10/07 11:57:48;;;;;;;0.30;0.30;;;;;;;18.46;52.20;99775.56;4970917;28;20034;-71
2021/10/07 12:00:14;;;;;;;0.15;0.15;;;;;;;19.23;51.91;99770.22;4961813;28;20453;-71
2021/10/07 12:02:39;;;;;;;0.47;0.38;;;;;;;20.36;48.43;99772.81;4981513;28;20042;-71
2021/10/07 12:05:18;;;;;;;0.15;0.15;;;;;;;18.88;49.26;99768.91;4963919;28;20028;-71
2021/10/07 12:08:01;;;;;;;0.20;0.20;;;;;;;18.41;50.88;99772.22;4976743;28;20101;-71
2021/10/07 12:10:50;;;;;;;0.30;0.17;;;;;;;18.23;52.96;99768.47;4975513;28;20106;-71
2021/10/07 12:13:21;;;;;;;0.57;0.57;;;;;;;16.76;55.90;99776.41;4967232;28;20031;-71
2021/10/07 12:16:11;;;;;;;0.20;0.20;;;;;;;15.87;58.42;99783.84;4967141;28;20029;-71
2021/10/07 12:18:40;;;;;;;0.50;0.50;;;;;;;16.45;57.03;99770.19;4974633;28;20033;-71
2021/10/07 12:21:08;;;;;;;0.43;0.43;;;;;;;16.25;57.52;99769.00;4973549;28;20031;-71
2021/10/07 12:23:54;;;;;;;0.10;0.10;;;;;;;16.04;58.71;99765.13;4973731;28;20124;-71
2021/10/07 12:26:48;;;;;;;0.43;0.43;;;;;;;16.42;57.72;99761.56;4977739;28;20037;-71
2021/10/07 12:29:21;;;;;;;0.77;0.60;;;;;;;15.63;59.89;99765.22;4979520;28;20058;-71
2021/10/07 12:31:57;;;;;;;0.20;0.20;;;;;;;15.41;59.30;99763.94;4976555;28;20041;-71
2021/10/07 12:34:34;;;;;;;0.55;0.55;;;;;;;14.80;63.45;99760.00;4973919;28;20031;-71
2021/10/07 12:37:01;;;;;;;0.20;0.20;;;;;;;15.26;61.61;99772.13;4978152;28;20050;-71
2021/10/07 12:39:36;;;;;;;0.17;0.17;;;;;;;14.48;65.09;99774.50;4973822;28;20448;-71
2021/10/07 12:42:06;;;;;;;4.07;1.05;;;;;;;14.71;66.72;99771.47;4979247;28;20551;-71
2021/10/07 12:44:40;;;;;;;0.30;0.30;;;;;;;14.58;66.32;99765.59;4981652;28;20431;-71
2021/10/07 12:47:08;;;;;;;0.30;0.30;;;;;;;15.10;64.16;99775.03;4969782;28;20085;-71
2021/10/07 12:49:37;;;;;;;0.40;0.40;;;;;;;14.07;67.21;99775.16;4984673;28;20033;-71
2021/10/07 12:52:25;;;;;;;0.40;0.40;;;;;;;13.94;67.31;99777.09;4978505;28;20026;-70
2021/10/07 12:54:56;;;;;;;0.20;0.20;;;;;;;14.52;64.64;99770.09;4981025;28;20495;-70
2021/10/07 12:57:43;;;;;;;0.30;0.30;;;;;;;15.27;64.71;99773.81;4980016;28;20041;-71
2021/10/07 13:00:27;;;;;;;0.20;0.20;;;;;;;15.31;63.04;99772.88;4977653;28;20147;-71
2021/10/07 13:02:54;;;;;;;0.15;0.15;;;;;;;15.17;62.17;99771.41;4980853;28;20271;-71
2021/10/07 13:05:22;;;;;;;0.50;0.50;;;;;;;15.26;62.55;99772.13;4974750;28;20166;-71
2021/10/07 13:07:50;;;;;;;0.30;0.30;;;;;;;15.51;60.52;99770.69;4984685;28;20058;-70
2021/10/07 13:10:15;;;;;;;0.20;0.20;;;;;;;15.53;61.00;99768.91;4978754;28;20495;-71
2021/10/07 13:12:41;;;;;;;0.50;0.50;;;;;;;15.60;62.24;99767.88;4975022;28;20065;-71
2021/10/07 13:15:07;;;;;;;0.10;0.10;;;;;;;15.70;60.93;99779.00;4974284;28;20098;-71
2021/10/07 13:17:32;;;;;;;0.20;0.20;;;;;;;15.95;60.12;99771.44;4974080;28;20019;-71
2021/10/07 13:19:58;;;;;;;0.10;0.10;;;;;;;16.53;59.07;99769.97;4974172;28;20038;-71
2021/10/07 13:22:23;;;;;;;0.20;0.20;;;;;;;16.55;57.54;99767.34;4982577;28;20027;-71
2021/10/07 13:24:48;;;;;;;0.30;0.30;;;;;;;16.07;58.96;99771.16;4975499;28;20476;-71
2021/10/07 13:27:19;;;;;;;0.22;0.22;;;;;;;16.29;59.15;99775.84;4978268;28;20187;-71
2021/10/07 13:29:45;;;;;;;0.30;0.30;;;;;;;14.82;60.54;99777.34;4975361;28;20034;-71
2021/10/07 13:32:11;;;;;;;0.40;0.40;;;;;;;15.10;61.63;99785.47;4978275;28;20391;-71
2021/10/07 13:34:36;;;;;;;1.02;0.73;;;;;;;14.93;62.46;99782.34;4980035;28;20034;-70
2021/10/07 13:37:01;;;;;;;0.80;0.55;;;;;;;14.96;60.69;99777.06;4983626;28;20118;-70
2021/10/07 13:39:27;;;;;;;0.45;0.45;;;;;;;14.69;63.46;99777.59;4977906;28;20066;-70
2021/10/07 13:41:52;;;;;;;0.20;0.20;;;;;;;14.79;60.70;99777.38;4973548;28;20031;-72
2021/10/07 13:44:18;;;;;;;0.47;0.45;;;;;;;14.98;59.15;99785.72;4980247;28;20089;-71
2021/10/07 13:46:43;;;;;;;0.50;0.50;;;;;;;14.90;59.52;99787.63;4969400;28;20109;-71
2021/10/07 13:49:09;;;;;;;0.40;0.40;;;;;;;15.24;59.78;99786.97;4981787;28;20506;-70
2021/10/07 13:51:34;;;;;;;0.20;0.20;;;;;;;15.45;60.77;99785.63;4971083;28;20122;-70
2021/10/07 13:54:00;;;;;;;0.20;0.20;;;;;;;14.65;59.98;99788.09;4978433;28;20030;-70
2021/10/07 13:56:25;;;;;;;0.22;0.22;;;;;;;14.76;59.23;99787.03;4976310;28;20101;-69
2021/10/07 13:58:52;;;;;;;0.38;0.38;;;;;;;14.88;58.75;99789.41;4980407;28;20476;-70
2021/10/07 14:01:17;;;;;;;0.28;0.28;;;;;;;15.01;59.69;99785.66;4970191;28;20027;-70
2021/10/07 14:03:42;;;;;;;0.20;0.20;;;;;;;15.14;59.35;99796.72;4980241;28;20038;-70
2021/10/07 14:06:08;;;;;;;0.80;0.80;;;;;;;14.92;59.27;99793.66;4977947;28;20027;-70
2021/10/07 14:08:33;;;;;;;0.30;0.30;;;;;;;14.79;58.94;99784.34;4981208;28;20529;-70
2021/10/07 14:11:05;;;;;;;0.30;0.30;;;;;;;14.72;60.30;99793.19;4978156;28;20031;-75
2021/10/07 14:13:31;;;;;;;0.20;0.20;;;;;;;14.82;61.20;99790.38;4969628;28;20502;-75
2021/10/07 14:15:56;;;;;;;0.30;0.30;;;;;;;14.98;61.27;99796.16;4975149;28;20019;-76
2021/10/07 14:18:21;;;;;;;0.10;0.10;;;;;;;15.12;61.71;99794.13;4970969;28;20054;-76
2021/10/07 14:20:47;;;;;;;1.05;0.40;;;;;;;15.22;59.77;99793.94;4976522;28;20109;-76
2021/10/07 14:23:12;;;;;;;0.40;0.28;;;;;;;15.22;60.39;99793.94;4979646;28;20033;-76
2021/10/07 14:25:37;;;;;;;0.30;0.30;;;;;;;14.36;62.34;99790.34;4981497;28;20022;-76
2021/10/07 14:28:04;;;;;;;0.60;0.50;;;;;;;14.74;61.77;99787.03;4971218;28;20019;-76
2021/10/07 14:30:30;;;;;;;0.20;0.20;;;;;;;15.03;61.07;99793.44;4983793;28;20026;-76
2021/10/07 14:32:56;;;;;;;0.20;0.20;;;;;;;15.06;61.83;99789.03;4976470;28;20385;-76
2021/10/07 14:35:21;;;;;;;0.57;0.57;;;;;;;14.92;61.46;99785.84;4984134;28;20057;-76
2021/10/07 14:37:46;;;;;;;0.20;0.20;;;;;;;15.04;61.51;99788.22;4972698;28;20026;-79
2021/10/07 14:40:12;;;;;;;0.82;0.82;;;;;;;15.01;63.14;99790.88;4979838;28;20450;-82
2021/10/07 14:42:39;;;;;;;0.13;0.13;;;;;;;15.14;62.49;99797.59;4972366;28;20421;-76
2021/10/07 14:45:06;;;;;;;0.20;0.20;;;;;;;15.10;63.81;99795.94;4974774;28;20101;-75
2021/10/07 14:47:31;;;;;;;0.38;0.38;;;;;;;14.24;62.59;99793.13;4975858;28;20037;-75
2021/10/07 14:49:57;;;;;;;0.40;0.40;;;;;;;14.77;62.50;99787.00;4977534;28;20023;-75
2021/10/07 14:52:22;;;;;;;0.17;0.17;;;;;;;14.98;61.62;99784.84;4973240;28;20357;-75
2021/10/07 14:54:47;;;;;;;0.40;0.40;;;;;;;15.19;61.21;99784.44;4979616;28;20029;-75
2021/10/07 14:57:13;;;;;;;0.32;0.32;;;;;;;15.34;59.12;99784.13;4977803;28;20113;-75
2021/10/07 14:59:38;;;;;;;0.30;0.30;;;;;;;15.12;60.27;99783.69;4987033;28;20033;-75
2021/10/07 15:02:03;;;;;;;0.20;0.20;;;;;;;15.23;58.85;99785.22;4969862;28;20038;-75
2021/10/07 15:04:29;;;;;;;0.40;0.40;;;;;;;14.28;59.87;99785.22;4975365;28;20371;-75
2021/10/07 15:06:55;;;;;;;0.30;0.30;;;;;;;14.65;60.75;99782.88;4980278;28;20026;-75
2021/10/07 15:09:20;;;;;;;0.20;0.20;;;;;;;14.61;61.15;99781.22;4976811;28;20038;-75
2021/10/07 15:11:46;;;;;;;0.40;0.40;;;;;;;14.60;62.60;99779.50;4980547;28;20507;-75
2021/10/07 15:14:11;;;;;;;0.20;0.20;;;;;;;14.73;60.27;99779.25;4970573;28;20039;-75
2021/10/07 15:16:36;;;;;;;0.65;0.65;;;;;;;14.71;58.55;99786.25;4977969;28;20031;-75
2021/10/07 15:19:02;;;;;;;0.20;0.20;;;;;;;14.48;60.00;99784.91;4967643;28;20095;-75
2021/10/07 15:21:35;;;;;;;0.10;0.10;;;;;;;14.53;59.85;99785.69;4981026;28;20026;-75
2021/10/07 15:24:00;;;;;;;0.50;0.50;;;;;;;14.43;59.85;99794.53;4974382;28;20034;-75
2021/10/07 15:26:25;;;;;;;0.20;0.20;;;;;;;14.53;60.67;99788.31;4978716;28;20518;-74
2021/10/07 15:28:51;;;;;;;0.25;0.25;;;;;;;14.43;60.07;99796.28;4979873;28;20026;-74
2021/10/07 15:31:16;;;;;;;0.20;0.20;;;;;;;14.36;60.93;99796.41;4972195;28;20031;-74
2021/10/07 15:33:41;;;;;;;0.20;0.20;;;;;;;14.31;60.80;99797.34;4978307;28;20053;-74
2021/10/07 15:36:07;;;;;;;0.43;0.43;;;;;;;14.23;60.07;99799.22;4975480;28;20127;-74
2021/10/07 15:38:32;;;;;;;0.20;0.20;;;;;;;14.22;60.59;99792.31;4978793;28;20065;-74
2021/10/07 15:40:57;;;;;;;0.17;0.17;;;;;;;14.13;61.38;99799.38;4974682;28;20030;-74
2021/10/07 15:43:23;;;;;;;0.10;0.10;;;;;;;14.12;62.43;99797.66;4976981;28;20241;-74
2021/10/07 15:45:48;;;;;;;0.30;0.30;;;;;;;14.13;62.94;99799.38;4975156;28;20050;-74
2021/10/07 15:48:14;;;;;;;0.20;0.20;;;;;;;14.12;62.55;99797.66;4977619;28;20391;-74
2021/10/07 15:50:42;;;;;;;0.30;0.30;;;;;;;14.06;64.43;99808.16;4975546;28;20460;-74
2021/10/07 15:53:08;;;;;;;0.40;0.40;;;;;;;13.99;64.43;99801.34;4977345;28;20113;-74
2021/10/07 15:55:34;;;;;;;0.32;0.32;;;;;;;14.03;65.67;99805.63;4976486;28;20603;-74